Terminal Aerodrome Forecast
Issued by NWS Goodland, KS

Home | Current Version | Previous Version | Text Only | Print | Product List | Glossary On
Versions: 1 2 3 4 5 6 7 8 9 10 11 12 13 14 15 16
000
FTUS43 KGLD 260117 AAA
TAFGLD
TAF AMD
KGLD 260117Z 2601/2624 01015G25KT P6SM BKN050
     FM260300 02012KT P6SM SCT050 BKN120
     FM260600 02010KT P6SM BKN020=

USA.gov is the U.S. government's official web portal to all federal, state and local government web resources and services.